Wetterdaten: Woche 31.01.05 - 06.02.05 (KW5)
Datum Zeit Temperatur Luftfeuchte Luftdruck Niederschlag Windrichtung Taupunkt Windchill Wind
31.01.2005 00:00 -6,2 C 71 % 1029 hPa 0,0 l/m S -10,6 C -9,5 C 10,5 km/h (2 Bft)
31.01.2005 01:00 -6,3 C 78 % 1029 hPa 0,0 l/m S -9,6 C -12,6 C 14,2 km/h (3 Bft)
31.01.2005 02:00 -6,7 C 80 % 1029 hPa 0,0 l/m S -9,6 C -13,1 C 13,7 km/h (3 Bft)
31.01.2005 03:00 -6,8 C 85 % 1029 hPa 0,0 l/m S -8,9 C -13,7 C 14,5 km/h (3 Bft)
31.01.2005 04:00 -6,6 C 87 % 1028 hPa 0,0 l/m S -8,4 C -13,9 C 15,8 km/h (3 Bft)
31.01.2005 05:00 -6,3 C 87 % 1028 hPa 0,0 l/m S -8,1 C -10,1 C 10,0 km/h (2 Bft)
31.01.2005 06:00 -6,1 C 84 % 1028 hPa 0,0 l/m S -8,4 C -12,9 C 15,2 km/h (3 Bft)
31.01.2005 07:00 -5,8 C 84 % 1028 hPa 0,0 l/m S -8,1 C -11,6 C 13,0 km/h (3 Bft)
31.01.2005 08:00 -5,6 C 83 % 1029 hPa 0,0 l/m S -7,9 C -10,2 C 12,0 km/h (2 Bft)
31.01.2005 09:00 -5,3 C 82 % 1029 hPa 0,0 l/m S -7,9 C -13,6 C 17,7 km/h (3 Bft)
31.01.2005 10:00 -4,8 C 79 % 1029 hPa 0,0 l/m S -7,9 C -14,4 C 20,7 km/h (4 Bft)
31.01.2005 11:00 -3,9 C 77 % 1029 hPa 0,0 l/m S -7,4 C -12,9 C 19,5 km/h (3 Bft)
31.01.2005 12:00 -3,6 C 76 % 1028 hPa 0,0 l/m S -7,1 C -11,1 C 16,2 km/h (3 Bft)
31.01.2005 13:00 -2,5 C 73 % 1027 hPa 0,0 l/m S -6,8 C -6,8 C 11,6 km/h (2 Bft)
31.01.2005 14:00 -0,9 C 66 % 1026 hPa 0,0 l/m W-SW -6,4 C -5,7 C 13,5 km/h (3 Bft)
31.01.2005 15:00 -1,0 C 65 % 1026 hPa 0,0 l/m S-SW -6,8 C -7,9 C 16,4 km/h (3 Bft)
31.01.2005 16:00 -2,0 C 70 % 1025 hPa 0,0 l/m S-SW -6,8 C -9,1 C 16,2 km/h (3 Bft)
31.01.2005 17:00 -2,5 C 74 % 1025 hPa 0,0 l/m S-SW -6,4 C -8,9 C 14,8 km/h (3 Bft)
31.01.2005 18:00 -1,9 C 77 % 1024 hPa 0,0 l/m S-SW -5,4 C -8,5 C 15,7 km/h (3 Bft)
31.01.2005 19:00 -1,2 C 81 % 1024 hPa 0,0 l/m S-SW -4,1 C -8,7 C 17,7 km/h (3 Bft)
31.01.2005 20:00 -1,3 C 94 % 1023 hPa 0,0 l/m S-SW -2,1 C -10,5 C 21,3 km/h (4 Bft)
31.01.2005 21:00 -0,9 C 96 % 1023 hPa 0,0 l/m SW -1,5 C -11,9 C 26,7 km/h (4 Bft)
31.01.2005 22:00 -0,8 C 99 % 1022 hPa 0,0 l/m W-SW -0,9 C -10,9 C 24,8 km/h (4 Bft)
31.01.2005 23:00 -0,5 C 100 % 1021 hPa 0,0 l/m SW -0,5 C -9,3 C 21,6 km/h (4 Bft)
01.02.2005 00:00 -0,3 C 100 % 1020 hPa 0,0 l/m W-SW -0,3 C -8,6 C 19,7 km/h (3 Bft)
01.02.2005 01:00 -0,2 C 100 % 1020 hPa 0,0 l/m W-SW -0,2 C -8,0 C 20,0 km/h (4 Bft)
01.02.2005 02:00 -0,2 C 100 % 1019 hPa 0,0 l/m W-SW -0,2 C -7,8 C 19,0 km/h (3 Bft)
01.02.2005 03:00 0,0 C 100 % 1018 hPa 0,0 l/m W-SW 0,0 C -7,0 C 17,3 km/h (3 Bft)
01.02.2005 04:00 0,2 C 100 % 1018 hPa 0,0 l/m SW 0,2 C -5,0 C 14,4 km/h (3 Bft)
01.02.2005 05:00 0,2 C 100 % 1018 hPa 0,0 l/m W-SW 0,2 C -4,4 C 13,3 km/h (3 Bft)
01.02.2005 06:00 0,4 C 100 % 1019 hPa 0,0 l/m W 0,4 C -2,8 C 11,3 km/h (2 Bft)
01.02.2005 07:00 0,2 C 99 % 1020 hPa 0,0 l/m N-NW 0,1 C -2,4 C 9,6 km/h (2 Bft)
01.02.2005 08:00 -0,4 C 98 % 1020 hPa 0,0 l/m W-NW -0,7 C -0,6 C 5,1 km/h (1 Bft)
01.02.2005 09:00 -0,6 C 98 % 1021 hPa 0,0 l/m NW -0,9 C -1,2 C 5,8 km/h (2 Bft)
01.02.2005 10:00 0,6 C 90 % 1021 hPa 0,0 l/m NW -0,9 C -2,7 C 11,2 km/h (2 Bft)
01.02.2005 11:00 0,9 C 85 % 1022 hPa 0,0 l/m W-NW -1,4 C -3,1 C 13,0 km/h (3 Bft)
01.02.2005 12:00 1,3 C 85 % 1022 hPa 0,0 l/m NW -0,9 C -1,2 C 10,2 km/h (2 Bft)
01.02.2005 13:00 0,9 C 87 % 1022 hPa 0,0 l/m NW -1,0 C -2,3 C 11,1 km/h (2 Bft)
01.02.2005 14:00 1,0 C 85 % 1023 hPa 0,0 l/m N -1,3 C 0,3 C 5,6 km/h (1 Bft)
01.02.2005 15:00 0,9 C 85 % 1023 hPa 0,0 l/m N -1,3 C -0,7 C 7,5 km/h (2 Bft)
01.02.2005 16:00 0,7 C 75 % 1024 hPa 0,0 l/m N-NW -3,2 C -1,4 C 8,6 km/h (2 Bft)
01.02.2005 17:00 -1,1 C 79 % 1025 hPa 0,0 l/m NW -4,3 C -2,8 C 8,4 km/h (2 Bft)
01.02.2005 18:00 -2,5 C 81 % 1026 hPa 0,0 l/m W-NW -5,3 C -2,9 C 3,5 km/h (1 Bft)
01.02.2005 19:00 -4,4 C 83 % 1026 hPa 0,0 l/m SW -6,8 C -4,7 C 1,3 km/h (1 Bft)
01.02.2005 20:00 -5,6 C 87 % 1027 hPa 0,0 l/m S-SW -7,4 C -5,7 C 1,3 km/h (1 Bft)
01.02.2005 21:00 -6,0 C 90 % 1027 hPa 0,0 l/m N -7,4 C -6,0 C 0,0 km/h (0 Bft)
01.02.2005 22:00 -3,8 C 93 % 1027 hPa 0,0 l/m W-SW -4,7 C -6,1 C 7,9 km/h (2 Bft)
01.02.2005 23:00 -2,4 C 90 % 1027 hPa 0,0 l/m W-SW -3,8 C -5,9 C 10,9 km/h (2 Bft)
02.02.2005 00:00 -2,8 C 86 % 1028 hPa 0,0 l/m W-SW -4,8 C -4,8 C 8,5 km/h (2 Bft)
02.02.2005 01:00 -3,1 C 88 % 1028 hPa 0,0 l/m W-SW -4,8 C -6,7 C 10,9 km/h (2 Bft)
02.02.2005 02:00 -2,5 C 86 % 1028 hPa 0,0 l/m W-SW -4,5 C -4,6 C 8,8 km/h (2 Bft)
02.02.2005 03:00 -2,6 C 87 % 1028 hPa 0,0 l/m S-SW -4,5 C -4,3 C 7,5 km/h (2 Bft)
02.02.2005 04:00 -2,7 C 89 % 1028 hPa 0,0 l/m S -4,3 C -3,9 C 6,7 km/h (2 Bft)
02.02.2005 05:00 -2,3 C 90 % 1028 hPa 0,0 l/m W-SW -3,8 C -7,0 C 13,2 km/h (3 Bft)
02.02.2005 06:00 -2,0 C 90 % 1028 hPa 0,0 l/m SW -3,4 C -5,0 C 10,4 km/h (2 Bft)
02.02.2005 07:00 -2,0 C 90 % 1028 hPa 0,0 l/m SW -3,4 C -4,9 C 10,7 km/h (2 Bft)
02.02.2005 08:00 -1,8 C 91 % 1028 hPa 0,0 l/m SW -3,2 C -6,6 C 12,6 km/h (3 Bft)
02.02.2005 09:00 -1,5 C 90 % 1028 hPa 0,0 l/m SW -2,8 C -7,4 C 14,9 km/h (3 Bft)
02.02.2005 10:00 -1,1 C 91 % 1028 hPa 0,0 l/m W-SW -2,4 C -6,6 C 14,3 km/h (3 Bft)
02.02.2005 11:00 -0,7 C 92 % 1028 hPa 0,0 l/m W-SW -1,9 C -6,9 C 15,5 km/h (3 Bft)
02.02.2005 12:00 -0,5 C 91 % 1028 hPa 0,0 l/m SW -1,7 C -7,5 C 17,9 km/h (3 Bft)
02.02.2005 13:00 -0,4 C 92 % 1027 hPa 0,0 l/m SW -1,5 C -9,1 C 20,8 km/h (4 Bft)
02.02.2005 14:00 -0,6 C 96 % 1027 hPa 0,0 l/m S-SW -1,2 C -8,6 C 19,8 km/h (3 Bft)
02.02.2005 15:00 -0,5 C 98 % 1027 hPa 0,0 l/m S-SW -0,8 C -6,5 C 15,5 km/h (3 Bft)
02.02.2005 16:00 -0,2 C 98 % 1027 hPa 0,0 l/m SW -0,5 C -6,3 C 15,8 km/h (3 Bft)
02.02.2005 17:00 -0,1 C 97 % 1027 hPa 0,0 l/m SW -0,6 C -4,1 C 12,1 km/h (2 Bft)
02.02.2005 18:00 0,1 C 95 % 1028 hPa 0,0 l/m W-SW -0,6 C -5,1 C 14,0 km/h (3 Bft)
02.02.2005 19:00 0,1 C 95 % 1028 hPa 0,0 l/m W-SW -0,7 C -5,0 C 14,2 km/h (3 Bft)
02.02.2005 20:00 0,3 C 95 % 1028 hPa 0,0 l/m SW -0,4 C -4,5 C 13,0 km/h (3 Bft)
02.02.2005 21:00 0,5 C 96 % 1028 hPa 0,0 l/m SW -0,1 C -4,4 C 13,7 km/h (3 Bft)
02.02.2005 22:00 0,5 C 97 % 1028 hPa 0,0 l/m W-SW 0,2 C -4,8 C 14,4 km/h (3 Bft)
02.02.2005 23:00 0,6 C 97 % 1028 hPa 0,0 l/m W-SW 0,2 C -3,7 C 12,5 km/h (3 Bft)
03.02.2005 00:00 0,7 C 97 % 1028 hPa 0,0 l/m W-SW 0,3 C -3,2 C 12,1 km/h (2 Bft)
03.02.2005 01:00 0,8 C 97 % 1028 hPa 0,0 l/m W-SW 0,3 C -5,2 C 15,8 km/h (3 Bft)
03.02.2005 02:00 0,8 C 97 % 1028 hPa 0,0 l/m W-SW 0,4 C -3,6 C 12,9 km/h (3 Bft)
03.02.2005 03:00 0,7 C 97 % 1028 hPa 0,0 l/m W-SW 0,3 C -4,1 C 13,9 km/h (3 Bft)
03.02.2005 04:00 0,8 C 96 % 1028 hPa 0,0 l/m W-SW 0,3 C -4,4 C 14,2 km/h (3 Bft)
03.02.2005 05:00 0,8 C 95 % 1028 hPa 0,0 l/m W-SW 0,1 C -3,1 C 12,3 km/h (3 Bft)
03.02.2005 06:00 0,8 C 95 % 1028 hPa 0,0 l/m W-SW 0,1 C -2,0 C 10,8 km/h (2 Bft)
03.02.2005 07:00 0,9 C 94 % 1028 hPa 0,0 l/m W-SW 0,1 C -3,2 C 12,8 km/h (3 Bft)
03.02.2005 08:00 0,9 C 94 % 1029 hPa 0,0 l/m W 0,0 C -0,7 C 8,1 km/h (2 Bft)
03.02.2005 09:00 0,8 C 94 % 1029 hPa 0,0 l/m S-SO -0,1 C 0,6 C 3,7 km/h (1 Bft)
03.02.2005 10:00 0,9 C 96 % 1029 hPa 0,0 l/m S 0,3 C -0,4 C 7,3 km/h (2 Bft)
03.02.2005 11:00 1,1 C 97 % 1030 hPa 0,0 l/m S 0,7 C -0,5 C 8,6 km/h (2 Bft)
03.02.2005 12:00 1,8 C 96 % 1029 hPa 0,0 l/m S 1,2 C -0,2 C 8,9 km/h (2 Bft)
03.02.2005 13:00 2,8 C 87 % 1029 hPa 0,0 l/m S 0,8 C 2,2 C 5,6 km/h (1 Bft)
03.02.2005 14:00 3,1 C 81 % 1029 hPa 0,0 l/m S-SW 0,2 C 2,0 C 6,7 km/h (2 Bft)
03.02.2005 15:00 2,0 C 89 % 1029 hPa 0,0 l/m S 0,4 C 0,2 C 7,6 km/h (2 Bft)
03.02.2005 16:00 1,6 C 93 % 1030 hPa 0,0 l/m S-SW 0,6 C 0,7 C 6,1 km/h (2 Bft)
03.02.2005 17:00 1,1 C 96 % 1030 hPa 0,0 l/m S 0,6 C 0,4 C 5,4 km/h (1 Bft)
03.02.2005 18:00 0,9 C 98 % 1030 hPa 0,0 l/m N 0,7 C 0,9 C 0,0 km/h (0 Bft)
03.02.2005 19:00 0,7 C 99 % 1031 hPa 0,0 l/m N 0,6 C 0,7 C 0,0 km/h (0 Bft)
03.02.2005 20:00 0,6 C 99 % 1031 hPa 0,0 l/m N 0,5 C 0,6 C 0,0 km/h (0 Bft)
03.02.2005 21:00 0,5 C 100 % 1031 hPa 0,0 l/m N 0,5 C 0,5 C 0,0 km/h (0 Bft)
03.02.2005 22:00 0,5 C 100 % 1031 hPa 0,0 l/m N 0,5 C 0,5 C 0,0 km/h (0 Bft)
03.02.2005 23:00 0,4 C 100 % 1031 hPa 0,0 l/m N 0,4 C 0,4 C 0,0 km/h (0 Bft)
04.02.2005 00:00 0,2 C 100 % 1031 hPa 0,0 l/m N 0,2 C 0,2 C 0,0 km/h (0 Bft)
04.02.2005 01:00 0,1 C 100 % 1030 hPa 0,0 l/m N 0,1 C 0,1 C 0,0 km/h (0 Bft)
04.02.2005 02:00 -0,1 C 100 % 1031 hPa 0,0 l/m N -0,1 C -0,1 C 0,0 km/h (0 Bft)
04.02.2005 03:00 -0,3 C 100 % 1031 hPa 0,0 l/m N -0,3 C -0,3 C 0,0 km/h (0 Bft)
04.02.2005 04:00 -0,6 C 100 % 1030 hPa 0,0 l/m N -0,6 C -0,6 C 0,0 km/h (0 Bft)
04.02.2005 05:00 -0,6 C 100 % 1030 hPa 0,0 l/m N -0,6 C -0,6 C 0,0 km/h (0 Bft)
04.02.2005 06:00 -1,1 C 100 % 1030 hPa 0,0 l/m N -1,1 C -1,1 C 0,0 km/h (0 Bft)
04.02.2005 07:00 -1,9 C 100 % 1030 hPa 0,0 l/m N -1,9 C -1,9 C 0,0 km/h (0 Bft)
04.02.2005 08:00 -1,3 C 100 % 1030 hPa 0,0 l/m N -1,3 C -1,3 C 0,0 km/h (0 Bft)
04.02.2005 09:00 -0,2 C 100 % 1031 hPa 0,0 l/m N -0,2 C -0,2 C 0,0 km/h (0 Bft)
04.02.2005 10:00 0,8 C 98 % 1031 hPa 0,0 l/m O-NO 0,5 C -0,8 C 6,5 km/h (2 Bft)
04.02.2005 11:00 1,9 C 82 % 1031 hPa 0,0 l/m O-NO -0,8 C -2,0 C 11,8 km/h (2 Bft)
04.02.2005 12:00 2,1 C 75 % 1030 hPa 0,0 l/m N-NO -1,9 C -2,3 C 13,1 km/h (3 Bft)
04.02.2005 13:00 2,0 C 75 % 1030 hPa 0,0 l/m NO -2,0 C -3,4 C 14,5 km/h (3 Bft)
04.02.2005 14:00 2,8 C 64 % 1029 hPa 0,0 l/m NO -3,3 C -2,0 C 15,0 km/h (3 Bft)
04.02.2005 15:00 1,9 C 70 % 1029 hPa 0,0 l/m N-NO -3,1 C -2,9 C 13,8 km/h (3 Bft)
04.02.2005 16:00 1,6 C 71 % 1029 hPa 0,0 l/m O-NO -3,1 C -2,8 C 12,7 km/h (3 Bft)
04.02.2005 17:00 0,6 C 76 % 1029 hPa 0,0 l/m N-NO -3,1 C -5,0 C 15,1 km/h (3 Bft)
04.02.2005 18:00 -0,3 C 73 % 1029 hPa 0,0 l/m N-NO -4,4 C -6,5 C 16,0 km/h (3 Bft)
04.02.2005 19:00 -1,1 C 74 % 1029 hPa 0,0 l/m N-NO -5,0 C -5,6 C 12,8 km/h (3 Bft)
04.02.2005 20:00 -2,1 C 76 % 1029 hPa 0,0 l/m N-NO -5,7 C -3,8 C 8,7 km/h (2 Bft)
04.02.2005 21:00 -3,2 C 79 % 1029 hPa 0,0 l/m N-NO -6,2 C -3,6 C 4,8 km/h (1 Bft)
04.02.2005 22:00 -4,2 C 81 % 1028 hPa 0,0 l/m O-NO -7,0 C -4,2 C 0,4 km/h (0 Bft)
04.02.2005 23:00 -5,2 C 83 % 1028 hPa 0,0 l/m N -7,7 C -5,2 C 0,7 km/h (0 Bft)
05.02.2005 00:00 -6,0 C 85 % 1027 hPa 0,0 l/m N-NW -8,2 C -6,0 C 0,8 km/h (0 Bft)
05.02.2005 01:00 -6,5 C 87 % 1027 hPa 0,0 l/m N -8,3 C -6,5 C 0,7 km/h (0 Bft)
05.02.2005 02:00 -6,5 C 92 % 1026 hPa 0,0 l/m N-NO -7,6 C -7,0 C 5,1 km/h (1 Bft)
05.02.2005 03:00 -5,8 C 97 % 1026 hPa 0,0 l/m O -6,1 C -5,9 C 2,5 km/h (1 Bft)
05.02.2005 04:00 -5,4 C 99 % 1026 hPa 0,0 l/m O -5,5 C -5,9 C 2,8 km/h (1 Bft)
05.02.2005 05:00 -5,3 C 100 % 1025 hPa 0,0 l/m O-NO -5,3 C -5,7 C 3,8 km/h (1 Bft)
05.02.2005 06:00 -5,1 C 100 % 1025 hPa 0,0 l/m O-NO -5,1 C -6,1 C 5,9 km/h (2 Bft)
05.02.2005 07:00 -5,1 C 100 % 1025 hPa 0,0 l/m O-NO -5,1 C -5,9 C 4,2 km/h (1 Bft)
05.02.2005 08:00 -5,0 C 100 % 1025 hPa 0,0 l/m O-NO -5,0 C -6,2 C 6,5 km/h (2 Bft)
05.02.2005 09:00 -4,9 C 100 % 1025 hPa 0,0 l/m N -4,9 C -4,9 C 0,0 km/h (0 Bft)
05.02.2005 10:00 -4,5 C 100 % 1025 hPa 0,0 l/m O -4,5 C -5,4 C 6,2 km/h (2 Bft)
05.02.2005 11:00 -4,1 C 99 % 1025 hPa 0,0 l/m O -4,3 C -4,3 C 2,6 km/h (1 Bft)
05.02.2005 12:00 -3,2 C 95 % 1025 hPa 0,0 l/m S-SW -3,9 C -3,2 C 0,5 km/h (0 Bft)
05.02.2005 13:00 -2,5 C 88 % 1024 hPa 0,0 l/m O -4,3 C -2,5 C 0,4 km/h (0 Bft)
05.02.2005 14:00 -2,2 C 83 % 1024 hPa 0,0 l/m O-NO -4,8 C -2,4 C 1,7 km/h (1 Bft)
05.02.2005 15:00 -2,5 C 81 % 1023 hPa 0,0 l/m O -5,2 C -3,3 C 5,7 km/h (1 Bft)
05.02.2005 16:00 -2,7 C 82 % 1023 hPa 0,0 l/m NO -5,4 C -3,1 C 2,9 km/h (1 Bft)
05.02.2005 17:00 -3,3 C 84 % 1023 hPa 0,0 l/m N-NO -5,5 C -3,9 C 4,4 km/h (1 Bft)
05.02.2005 18:00 -3,6 C 88 % 1023 hPa 0,0 l/m O-NO -5,3 C -4,1 C 2,2 km/h (1 Bft)
05.02.2005 19:00 -3,8 C 90 % 1024 hPa 0,0 l/m O-NO -5,2 C -4,7 C 3,9 km/h (1 Bft)
05.02.2005 20:00 -4,1 C 92 % 1024 hPa 0,0 l/m O -5,2 C -4,3 C 1,4 km/h (1 Bft)
05.02.2005 21:00 -4,2 C 92 % 1024 hPa 0,0 l/m N -5,2 C -4,2 C 0,0 km/h (0 Bft)
05.02.2005 22:00 -4,2 C 93 % 1024 hPa 0,0 l/m N -5,1 C -4,2 C 0,0 km/h (0 Bft)
05.02.2005 23:00 -4,4 C 95 % 1024 hPa 0,0 l/m S -5,1 C -4,4 C 1,6 km/h (1 Bft)
06.02.2005 00:00 -4,6 C 96 % 1024 hPa 0,0 l/m S -5,1 C -4,7 C 1,0 km/h (0 Bft)
06.02.2005 01:00 -4,5 C 98 % 1024 hPa 0,0 l/m S-SW -4,7 C -4,7 C 2,5 km/h (1 Bft)
06.02.2005 02:00 -4,5 C 100 % 1024 hPa 0,0 l/m S-SW -4,5 C -6,4 C 8,2 km/h (2 Bft)
06.02.2005 03:00 -4,6 C 100 % 1024 hPa 0,0 l/m S -4,6 C -4,6 C 1,1 km/h (0 Bft)
06.02.2005 04:00 -4,5 C 100 % 1024 hPa 0,0 l/m W-SW -4,5 C -4,6 C 1,2 km/h (1 Bft)
06.02.2005 05:00 -4,3 C 100 % 1024 hPa 0,0 l/m N -4,3 C -4,3 C 0,0 km/h (0 Bft)
06.02.2005 06:00 -4,2 C 100 % 1024 hPa 0,0 l/m N -4,2 C -4,2 C 0,0 km/h (0 Bft)
06.02.2005 07:00 -4,2 C 100 % 1024 hPa 0,0 l/m N -4,2 C -4,2 C 0,0 km/h (0 Bft)
06.02.2005 08:00 -4,1 C 100 % 1024 hPa 0,0 l/m N -4,1 C -4,1 C 0,0 km/h (0 Bft)
06.02.2005 09:00 -3,5 C 100 % 1024 hPa 0,0 l/m N -3,5 C -3,5 C 0,0 km/h (0 Bft)
06.02.2005 10:00 -2,6 C 100 % 1024 hPa 0,0 l/m N -2,6 C -2,6 C 0,0 km/h (0 Bft)
06.02.2005 11:00 -1,3 C 95 % 1025 hPa 0,0 l/m N-NO -2,0 C -2,2 C 4,5 km/h (1 Bft)
06.02.2005 12:00 -0,8 C 81 % 1025 hPa 0,0 l/m N-NO -3,7 C -1,7 C 7,5 km/h (2 Bft)
06.02.2005 13:00 -0,5 C 79 % 1025 hPa 0,0 l/m N-NO -3,8 C -1,4 C 6,5 km/h (2 Bft)
06.02.2005 14:00 -0,5 C 78 % 1024 hPa 0,0 l/m N-NO -3,9 C -2,0 C 7,3 km/h (2 Bft)
06.02.2005 15:00 -0,5 C 77 % 1025 hPa 0,0 l/m N -4,0 C -2,3 C 8,5 km/h (2 Bft)
06.02.2005 16:00 -0,8 C 78 % 1025 hPa 0,0 l/m N -4,2 C -2,3 C 7,0 km/h (2 Bft)
06.02.2005 17:00 -1,9 C 82 % 1024 hPa 0,0 l/m N -4,6 C -5,8 C 11,3 km/h (2 Bft)
06.02.2005 18:00 -2,8 C 86 % 1025 hPa 0,0 l/m N -4,8 C -5,6 C 10,3 km/h (2 Bft)
06.02.2005 19:00 -3,6 C 88 % 1025 hPa 0,0 l/m N-NW -5,2 C -7,2 C 11,2 km/h (2 Bft)
06.02.2005 20:00 -4,0 C 91 % 1025 hPa 0,0 l/m N-NW -5,2 C -6,8 C 9,9 km/h (2 Bft)
06.02.2005 21:00 -4,4 C 93 % 1025 hPa 0,0 l/m N -5,4 C -7,4 C 9,7 km/h (2 Bft)
06.02.2005 22:00 -4,7 C 94 % 1025 hPa 0,0 l/m N -5,5 C -8,3 C 10,7 km/h (2 Bft)
06.02.2005 23:00 -5,2 C 96 % 1025 hPa 0,0 l/m N -5,7 C -7,0 C 8,1 km/h (2 Bft)
Min-Datum _ 05.02.05 04.02.05 01.02.05 - - 31.01.05 31.01.05 31.01.05
_ Min-Zeit 02:05 14:19 04:28 - - 00:00 04:32 00:34
Minimum _ -6,9 C 62 % 1017 hPa - - -11,0 C -19,8 C 0,0 km/h (0 Bft)
Max-Datum _ 04.02.05 31.01.05 03.02.05 31.01.05 - 03.02.05 04.02.05 31.01.05
_ Max-Zeit 13:56 22:28 19:12 00:00 - 12:29 13:56 22:25
Maximum _ 3,4 C 100 % 1031 hPa 0,0 l/m - 1,5 C 3,4 C 41,3 km/h
W-SW (6 Bft)
Durchschnitt _ -1,8 C 90 % 1027 hPa #0,0 l/m W-SW -3,2 C -4,7 C 8,7 km/h (2 Bft)

Durchschnitt Minimum Temp.-2,1 C
Durchschnitt Maximum Temp.-1,4 C